Terminal Aerodrome Forecast
Issued by NWS

Home | Current Version | Previous Version | Graphics & Text | Print | Product List | Glossary On
Versions: 1 2 3 4 5 6 7 8 9 10 11 12 13 14 15 16
000
FTUS43 KABR 301738
TAFATY
TAF
KATY 301738Z 3018/3118 03010KT P6SM SCT250
     FM310200 09005KT P6SM SCT250
     FM311500 15014KT P6SM VCSH OVC070=

USA.gov is the U.S. government's official web portal to all federal, state and local government web resources and services.